Hornblower Infinity — WDF9892 — position and weather

sailwx.info

Track history (hours):
 
Tides and Currents Weather Stations Pressure Air Temp Water Temp Dewpoint Dewpoint Depression Visibility Wind Speed Wind Dir Waves Ship Positions

Hornblower Infinity

Owner: Hornblower Yachts Inc., San Francisco, CA. More information available from US FCC via Universal Licensing System and Coast Guard Vessel Documentation Center.

Last reported at 2017-Oct-22 22:44 UTC. Time now 2017-Oct-23 06:06 UTC.
Position N 40°44' W 074°01'.

Length 57 m; draft 4.5 m.

Type: Passenger vessel. MMSI: 367509910.

Date/timePositionNaut miles runAvg speedWind from/ knotsBaromVisibWave heightAir tempDewpointWater temp
2017-Oct-22 22:44N 40°44' W 074°01'0 0.0
2017-Oct-22 22:31N 40°44' W 074°01'0 0.0
2017-Oct-22 22:00N 40°44' W 074°01'0 0.0
2017-Oct-22 21:30N 40°44' W 074°01'0 0.0
2017-Oct-22 21:00N 40°44' W 074°01'0 0.0
2017-Oct-22 20:30N 40°44' W 074°01'0 0.0
2017-Oct-22 20:00N 40°44' W 074°01'0 0.0
2017-Oct-22 19:30N 40°44' W 074°01'0 0.0
2017-Oct-22 19:00N 40°44' W 074°01'0 0.0
2017-Oct-22 18:30N 40°44' W 074°01'1 1.6
2017-Oct-22 18:00N 40°43' W 074°01'2 4.4
2017-Oct-22 17:30N 40°41' W 074°02'2 3.5
2017-Oct-22 17:00N 40°43' W 074°01'1 2.5
2017-Oct-22 16:30N 40°44' W 074°01'0 0.0
2017-Oct-22 16:00N 40°44' W 074°01'0 0.0
2017-Oct-22 15:30N 40°44' W 074°01'0 0.0
2017-Oct-22 08:14N 40°44' W 074°01'0 0.0
2017-Oct-22 08:00N 40°44' W 074°01'0 0.0
2017-Oct-22 07:29N 40°44' W 074°01'0 0.0
2017-Oct-22 07:00N 40°44' W 074°01'0 0.0
2017-Oct-22 06:31N 40°44' W 074°01'0 0.0
2017-Oct-22 06:00N 40°44' W 074°01'0 0.0
2017-Oct-22 05:30N 40°44' W 074°01'0 0.0
2017-Oct-22 05:00N 40°44' W 074°01'0 0.0
2017-Oct-22 04:30N 40°44' W 074°01'0 0.0
2017-Oct-22 04:00N 40°44' W 074°01'0 0.0
2017-Oct-22 03:30N 40°44' W 074°01'1 2.7
2017-Oct-22 03:00N 40°43' W 074°02'1 2.6
2017-Oct-22 02:30N 40°41' W 074°02'3 6.3
2017-Oct-22 02:01N 40°43' W 073°59'1 2.4
2017-Oct-22 01:30N 40°42' W 073°60'2 3.5
2017-Oct-22 01:00N 40°44' W 074°01'0 0.2
2017-Oct-22 00:30N 40°44' W 074°01'0 0.0
2017-Oct-21 23:59N 40°44' W 074°01'0 0.0
2017-Oct-21 23:30N 40°44' W 074°01'0 0.0
2017-Oct-21 23:00N 40°44' W 074°01'0 0.0
2017-Oct-21 22:30N 40°44' W 074°01'0 0.0
2017-Oct-21 22:00N 40°44' W 074°01'0 0.0
2017-Oct-21 21:00N 40°44' W 074°01'0 0.0
2017-Oct-21 20:29N 40°44' W 074°01'0 0.0
2017-Oct-21 20:00N 40°44' W 074°01'0 0.0
2017-Oct-21 19:30N 40°44' W 074°01'0 0.0
2017-Oct-21 19:00N 40°44' W 074°01'0 0.0
2017-Oct-21 18:30N 40°44' W 074°01'2 4.1
2017-Oct-21 18:00N 40°42' W 074°02'1 2.2
2017-Oct-21 17:30N 40°42' W 074°00'1 3.0
2017-Oct-21 17:00N 40°43' W 074°01'1 1.4
2017-Oct-21 16:30N 40°44' W 074°01'0 0.0
2017-Oct-21 16:00N 40°44' W 074°01'0 0.0
2017-Oct-21 15:30N 40°44' W 074°01'0 0.0
2017-Oct-21 15:00N 40°44' W 074°01'0 0.0
2017-Oct-21 14:29N 40°44' W 074°01'0 0.0
2017-Oct-19 15:56N 40°44' W 074°01'0 0.0
2017-Oct-19 15:30N 40°44' W 074°01'0 0.0
2017-Oct-19 15:00N 40°44' W 074°01'0 0.0
2017-Oct-19 14:30N 40°44' W 074°01'0 0.0
2017-Oct-19 14:00N 40°44' W 074°01'0 0.0
2017-Oct-19 13:29N 40°44' W 074°01'0 0.0
2017-Oct-19 12:59N 40°44' W 074°01'0 0.0
2017-Oct-19 12:30N 40°44' W 074°01'0 0.0
2017-Oct-19 12:00N 40°44' W 074°01'0 0.0
2017-Oct-19 11:30N 40°44' W 074°01'0 0.0
2017-Oct-19 11:00N 40°44' W 074°01'0 0.0
2017-Oct-19 10:29N 40°44' W 074°01'0 0.0
2017-Oct-19 10:00N 40°44' W 074°01'0 0.0
2017-Oct-19 09:30N 40°44' W 074°01'0 0.0
2017-Oct-19 09:00N 40°44' W 074°01'0 0.0
2017-Oct-19 08:30N 40°44' W 074°01'0 0.0
2017-Oct-19 08:00N 40°44' W 074°01'0 0.0
2017-Oct-19 07:30N 40°44' W 074°01'0 0.0
2017-Oct-19 07:00N 40°44' W 074°01'0 0.0
2017-Oct-19 06:30N 40°44' W 074°01'0 0.0
2017-Oct-19 06:00N 40°44' W 074°01'0 0.0
2017-Oct-19 05:30N 40°44' W 074°01'0 0.0
2017-Oct-19 05:00N 40°44' W 074°01'0 0.0
2017-Oct-19 04:30N 40°44' W 074°01'0 0.0
2017-Oct-19 04:00N 40°44' W 074°01'0 0.0
2017-Oct-19 03:29N 40°44' W 074°01'0 0.0
2017-Oct-19 03:00N 40°44' W 074°01'0 0.0
2017-Oct-19 02:29N 40°44' W 074°01'0 0.0
2017-Oct-19 01:59N 40°44' W 074°01'0 0.0
2017-Oct-19 01:29N 40°44' W 074°01'0 0.0
2017-Oct-19 01:00N 40°44' W 074°01'0 0.0
2017-Oct-19 00:30N 40°44' W 074°01'0 0.0
2017-Oct-19 00:00N 40°44' W 074°01'0 0.0
2017-Oct-18 23:30N 40°44' W 074°01'0 0.0
2017-Oct-18 22:57N 40°44' W 074°01'0 0.0
2017-Oct-18 22:30N 40°44' W 074°01'0 0.0
2017-Oct-18 22:00N 40°44' W 074°01'0 0.0
2017-Oct-18 21:30N 40°44' W 074°01'0 0.0
2017-Oct-18 21:00N 40°44' W 074°01'0 0.0
2017-Oct-18 20:30N 40°44' W 074°01'0 0.0
2017-Oct-18 20:00N 40°44' W 074°01'0 0.0
2017-Oct-18 19:30N 40°44' W 074°01'0 0.0
2017-Oct-18 19:00N 40°44' W 074°01'0 0.0
2017-Oct-18 18:30N 40°44' W 074°01'0 0.0
2017-Oct-18 18:00N 40°44' W 074°01'0 0.0
2017-Oct-18 17:30N 40°44' W 074°01'0 0.0
2017-Oct-18 17:00N 40°44' W 074°01'0 0.0
2017-Oct-18 16:29N 40°44' W 074°01'0 0.0
2017-Oct-18 16:00N 40°44' W 074°01'0 0.0
2017-Oct-18 15:30N 40°44' W 074°01'0 0.0
2017-Oct-18 14:59N 40°44' W 074°01'0 0.0
2017-Oct-18 14:00N 40°44' W 074°01'0 0.0
2017-Oct-18 13:30N 40°44' W 074°01'0 0.0
2017-Oct-18 13:00N 40°44' W 074°01'0 0.0
2017-Oct-18 12:30N 40°44' W 074°01'0 0.0
2017-Oct-18 12:00N 40°44' W 074°01'0 0.0
2017-Oct-18 11:30N 40°44' W 074°01'0 0.0
2017-Oct-18 11:00N 40°44' W 074°01'0 0.0
2017-Oct-18 10:30N 40°44' W 074°01'0 0.0
2017-Oct-18 10:00N 40°44' W 074°01'0 0.0
2017-Oct-18 09:30N 40°44' W 074°01'0 0.0
2017-Oct-18 09:00N 40°44' W 074°01'0 0.0
2017-Oct-18 08:29N 40°44' W 074°01'0 0.0
2017-Oct-18 08:00N 40°44' W 074°01'0 0.0
2017-Oct-18 07:30N 40°44' W 074°01'0 0.0
2017-Oct-18 07:00N 40°44' W 074°01'0 0.0
2017-Oct-18 06:30N 40°44' W 074°01'0 0.0
2017-Oct-18 06:00N 40°44' W 074°01'0 0.0
2017-Oct-18 05:30N 40°44' W 074°01'0 0.0
2017-Oct-18 05:00N 40°44' W 074°01'0 0.0
2017-Oct-18 04:30N 40°44' W 074°01'0 0.0
2017-Oct-18 04:00N 40°44' W 074°01'0 0.0
2017-Oct-18 03:30N 40°44' W 074°01'0 0.0
2017-Oct-18 03:00N 40°44' W 074°01'0 0.0
2017-Oct-18 02:30N 40°44' W 074°01'0 0.0
2017-Oct-18 02:00N 40°44' W 074°01'0 0.0
2017-Oct-18 01:30N 40°44' W 074°01'0 0.0
2017-Oct-18 01:00N 40°44' W 074°01'0 0.0
2017-Oct-18 00:29N 40°44' W 074°01'0 0.0
2017-Oct-18 00:00N 40°44' W 074°01'0 0.0
2017-Oct-17 23:30N 40°44' W 074°01'0 0.0
2017-Oct-17 23:00N 40°44' W 074°01'0 0.0
2017-Oct-17 22:30N 40°44' W 074°01'0 0.0
2017-Oct-17 22:00N 40°44' W 074°01'0 0.0
2017-Oct-17 21:30N 40°44' W 074°01'0 0.0
2017-Oct-17 21:00N 40°44' W 074°01'0 0.0
2017-Oct-17 20:30N 40°44' W 074°01'0 0.0
2017-Oct-17 20:00N 40°44' W 074°01'0 0.0
2017-Oct-17 19:30N 40°44' W 074°01'0 0.0
2017-Oct-17 19:00N 40°44' W 074°01'0 0.0
2017-Oct-17 18:30N 40°44' W 074°01'0 0.0
2017-Oct-17 18:00N 40°44' W 074°01'0 0.0
2017-Oct-17 17:30N 40°44' W 074°01'0 0.0
2017-Oct-17 17:00N 40°44' W 074°01'0 0.0
2017-Oct-17 16:30N 40°44' W 074°01'0 0.0
2017-Oct-17 16:00N 40°44' W 074°01'0 0.0
2017-Oct-17 15:29N 40°44' W 074°01'0 0.0
2017-Oct-17 15:00N 40°44' W 074°01'0 0.0
2017-Oct-17 14:30N 40°44' W 074°01'0 0.0
2017-Oct-17 13:30N 40°44' W 074°01'0 0.0
2017-Oct-17 13:00N 40°44' W 074°01'0 0.0
2017-Oct-17 12:30N 40°44' W 074°01'0 0.0
2017-Oct-17 12:00N 40°44' W 074°01'0 0.0
2017-Oct-17 11:30N 40°44' W 074°01'0 0.0
2017-Oct-17 11:00N 40°44' W 074°01'0 0.0
2017-Oct-17 10:30N 40°44' W 074°01'0 0.0
2017-Oct-17 10:00N 40°44' W 074°01'0 0.0
2017-Oct-17 09:30N 40°44' W 074°01'0 0.0
2017-Oct-17 09:00N 40°44' W 074°01'0 0.0
2017-Oct-17 08:30N 40°44' W 074°01'0 0.0
2017-Oct-17 08:00N 40°44' W 074°01'0 0.0
2017-Oct-17 07:30N 40°44' W 074°01'0 0.0
2017-Oct-17 07:00N 40°44' W 074°01'0 0.0
2017-Oct-17 06:30N 40°44' W 074°01'0 0.0
2017-Oct-17 06:00N 40°44' W 074°01'0 0.0
2017-Oct-17 05:30N 40°44' W 074°01'0 0.0
2017-Oct-17 05:00N 40°44' W 074°01'0 0.0
2017-Oct-17 04:30N 40°44' W 074°01'0 0.0
2017-Oct-17 03:59N 40°44' W 074°01'0 0.0
2017-Oct-17 03:30N 40°44' W 074°01'0 0.0
2017-Oct-17 03:00N 40°44' W 074°01'0 0.0
2017-Oct-17 02:30N 40°44' W 074°01'0 0.0
2017-Oct-17 02:00N 40°44' W 074°01'0 0.0
2017-Oct-17 01:30N 40°44' W 074°01'0 0.0
2017-Oct-17 01:00N 40°44' W 074°01'0 0.0
2017-Oct-17 00:30N 40°44' W 074°01'0 0.0
2017-Oct-17 00:00N 40°44' W 074°01'0 0.0
2017-Oct-16 23:30N 40°44' W 074°01'0 0.0
2017-Oct-16 23:00N 40°44' W 074°01'0 0.0
2017-Oct-16 22:30N 40°44' W 074°01'0 0.0
2017-Oct-16 22:00N 40°44' W 074°01'0 0.0
2017-Oct-16 21:30N 40°44' W 074°01'0 0.0
2017-Oct-16 21:00N 40°44' W 074°01'0 0.0
2017-Oct-16 20:30N 40°44' W 074°01'0 0.0
2017-Oct-16 20:00N 40°44' W 074°01'0 0.0
2017-Oct-16 19:30N 40°44' W 074°01'0 0.0
2017-Oct-16 19:00N 40°44' W 074°01'0 0.0
2017-Oct-16 18:30N 40°44' W 074°01'0 0.0
2017-Oct-16 18:00N 40°44' W 074°01'0 0.0
2017-Oct-16 17:30N 40°44' W 074°01'0 0.0
2017-Oct-16 17:00N 40°44' W 074°01'0 0.0
2017-Oct-16 16:30N 40°44' W 074°01'0 0.0
2017-Oct-16 16:00N 40°44' W 074°01'0 0.0
2017-Oct-16 15:30N 40°44' W 074°01'0 0.0
2017-Oct-16 15:00N 40°44' W 074°01'0 0.0
2017-Oct-16 14:00N 40°44' W 074°01'0 0.0
2017-Oct-16 13:30N 40°44' W 074°01'0 0.0
2017-Oct-16 13:00N 40°44' W 074°01'0 0.0
2017-Oct-16 12:30N 40°44' W 074°01'0 0.0
2017-Oct-16 12:00N 40°44' W 074°01'0 0.0
2017-Oct-16 11:30N 40°44' W 074°01'0 0.0
2017-Oct-16 11:00N 40°44' W 074°01'0 0.0
2017-Oct-16 10:30N 40°44' W 074°01'0 0.0
2017-Oct-16 10:00N 40°44' W 074°01'0 0.0
2017-Oct-16 09:30N 40°44' W 074°01'0 0.0
2017-Oct-16 09:00N 40°44' W 074°01'0 0.0
2017-Oct-16 08:30N 40°44' W 074°01'0 0.0
2017-Oct-16 08:00N 40°44' W 074°01'0 0.0
2017-Oct-16 07:30N 40°44' W 074°01'0 0.0
2017-Oct-16 07:00N 40°44' W 074°01'0 0.0
2017-Oct-16 06:30N 40°44' W 074°01'0 0.0
2017-Oct-16 06:00N 40°44' W 074°01'0 0.0
2017-Oct-16 05:30N 40°44' W 074°01'0 0.0
2017-Oct-16 05:00N 40°44' W 074°01'0 0.0
2017-Oct-16 04:30N 40°44' W 074°01'0 0.0
2017-Oct-16 04:00N 40°44' W 074°01'0 0.0
2017-Oct-16 03:30N 40°44' W 074°01'0 0.0
2017-Oct-16 03:00N 40°44' W 074°01'0 0.0
2017-Oct-16 02:30N 40°44' W 074°01'0 0.0
2017-Oct-16 02:00N 40°44' W 074°01'0 0.0
2017-Oct-16 01:30N 40°44' W 074°01'0 0.0
2017-Oct-16 01:00N 40°44' W 074°01'0 0.0
2017-Oct-16 00:30N 40°44' W 074°01'0 0.0
2017-Oct-16 00:00N 40°44' W 074°01'0 0.0
2017-Oct-15 23:30N 40°44' W 074°01'0 0.0
2017-Oct-15 23:00N 40°44' W 074°01'0 0.0
2017-Oct-15 22:30N 40°44' W 074°01'0 0.0
2017-Oct-15 22:00N 40°44' W 074°01'0 0.0
2017-Oct-15 21:30N 40°44' W 074°01'0 0.0
2017-Oct-15 20:59N 40°44' W 074°01'0 0.0
2017-Oct-15 20:30N 40°44' W 074°01'0 0.0
2017-Oct-15 19:59N 40°44' W 074°01'0 0.0
2017-Oct-15 19:30N 40°44' W 074°01'0 0.0
2017-Oct-15 19:00N 40°44' W 074°01'0 0.0
2017-Oct-15 18:30N 40°44' W 074°01'1 1.8
2017-Oct-15 18:00N 40°43' W 074°01'2 3.0
2017-Oct-15 17:30N 40°42' W 074°02'1 2.0
2017-Oct-15 17:00N 40°43' W 074°01'1 2.8
2017-Oct-15 16:30N 40°44' W 074°01'0 0.0
2017-Oct-15 16:00N 40°44' W 074°01'0 0.0
2017-Oct-15 15:30N 40°44' W 074°01'0 0.0
2017-Oct-15 15:00N 40°44' W 074°01'0 0.0
2017-Oct-15 14:00N 40°44' W 074°01'0 0.0
2017-Oct-15 05:41N 40°44' W 074°01'0 1.4
2017-Oct-15 05:30N 40°44' W 074°01'3 5.4
2017-Oct-15 05:00N 40°41' W 074°03'2 5.0
2017-Oct-15 04:30N 40°42' W 073°60'0 0.4
2017-Oct-15 04:00N 40°42' W 073°59'1 2.9
2017-Oct-15 03:30N 40°43' W 074°01'1 2.7
2017-Oct-15 03:00N 40°44' W 074°01'0 0.0
2017-Oct-14 18:37N 40°44' W 074°01'0 0.0
2017-Oct-14 18:29N 40°44' W 074°01'3 5.7
2017-Oct-14 18:00N 40°41' W 074°02'3 5.2
2017-Oct-14 17:30N 40°42' W 073°59'2 3.4
2017-Oct-14 17:00N 40°42' W 074°01'1 3.0
2017-Oct-14 16:30N 40°44' W 074°01'0 0.0
2017-Oct-14 16:00N 40°44' W 074°01'0 0.0
2017-Oct-14 03:42N 40°44' W 074°01'0 1.0
2017-Oct-14 03:30N 40°44' W 074°01'1 2.2
2017-Oct-14 03:00N 40°43' W 074°01'1 2.6
2017-Oct-14 02:29N 40°41' W 074°02'3 7.0
2017-Oct-14 02:00N 40°43' W 073°58'1 2.6
2017-Oct-14 01:30N 40°42' W 073°60'1 2.7
2017-Oct-14 01:00N 40°43' W 074°01'3 6.0
2017-Oct-14 00:30N 40°46' W 074°01'1 1.0
2017-Oct-14 00:00N 40°45' W 074°01'1 2.6
2017-Oct-13 23:30N 40°44' W 074°01'0 0.0
2017-Oct-13 23:00N 40°44' W 074°01'  
Track history (hours):
 
Tides and Currents Weather Stations Pressure Air Temp Water Temp Dewpoint Dewpoint Depression Visibility Wind Speed Wind Dir Waves Ship Positions

Hornblower Infinity

Owner: Hornblower Yachts Inc., San Francisco, CA. More information available from US FCC via Universal Licensing System and Coast Guard Vessel Documentation Center.

Last reported at 2017-Oct-22 22:44 UTC. Time now 2017-Oct-23 06:06 UTC.
Position N 40°44' W 074°01'.

Length 57 m; draft 4.5 m.

Type: Passenger vessel. MMSI: 367509910.

Date/timePositionNaut miles runAvg speedWind from/ knotsBaromVisibWave heightAir tempDewpointWater temp
2017-Oct-22 22:44N 40°44' W 074°01'0 0.0
2017-Oct-22 22:31N 40°44' W 074°01'0 0.0
2017-Oct-22 22:00N 40°44' W 074°01'0 0.0
2017-Oct-22 21:30N 40°44' W 074°01'0 0.0
2017-Oct-22 21:00N 40°44' W 074°01'0 0.0
2017-Oct-22 20:30N 40°44' W 074°01'0 0.0
2017-Oct-22 20:00N 40°44' W 074°01'0 0.0
2017-Oct-22 19:30N 40°44' W 074°01'0 0.0
2017-Oct-22 19:00N 40°44' W 074°01'0 0.0
2017-Oct-22 18:30N 40°44' W 074°01'1 1.6
2017-Oct-22 18:00N 40°43' W 074°01'2 4.4
2017-Oct-22 17:30N 40°41' W 074°02'2 3.5
2017-Oct-22 17:00N 40°43' W 074°01'1 2.5
2017-Oct-22 16:30N 40°44' W 074°01'0 0.0
2017-Oct-22 16:00N 40°44' W 074°01'0 0.0
2017-Oct-22 15:30N 40°44' W 074°01'0 0.0
2017-Oct-22 08:14N 40°44' W 074°01'0 0.0
2017-Oct-22 08:00N 40°44' W 074°01'0 0.0
2017-Oct-22 07:29N 40°44' W 074°01'0 0.0
2017-Oct-22 07:00N 40°44' W 074°01'0 0.0
2017-Oct-22 06:31N 40°44' W 074°01'0 0.0
2017-Oct-22 06:00N 40°44' W 074°01'0 0.0
2017-Oct-22 05:30N 40°44' W 074°01'0 0.0
2017-Oct-22 05:00N 40°44' W 074°01'0 0.0
2017-Oct-22 04:30N 40°44' W 074°01'0 0.0
2017-Oct-22 04:00N 40°44' W 074°01'0 0.0
2017-Oct-22 03:30N 40°44' W 074°01'1 2.7
2017-Oct-22 03:00N 40°43' W 074°02'1 2.6
2017-Oct-22 02:30N 40°41' W 074°02'3 6.3
2017-Oct-22 02:01N 40°43' W 073°59'1 2.4
2017-Oct-22 01:30N 40°42' W 073°60'2 3.5
2017-Oct-22 01:00N 40°44' W 074°01'0 0.2
2017-Oct-22 00:30N 40°44' W 074°01'0 0.0
2017-Oct-21 23:59N 40°44' W 074°01'0 0.0
2017-Oct-21 23:30N 40°44' W 074°01'0 0.0
2017-Oct-21 23:00N 40°44' W 074°01'0 0.0
2017-Oct-21 22:30N 40°44' W 074°01'0 0.0
2017-Oct-21 22:00N 40°44' W 074°01'0 0.0
2017-Oct-21 21:00N 40°44' W 074°01'0 0.0
2017-Oct-21 20:29N 40°44' W 074°01'0 0.0
2017-Oct-21 20:00N 40°44' W 074°01'0 0.0
2017-Oct-21 19:30N 40°44' W 074°01'0 0.0
2017-Oct-21 19:00N 40°44' W 074°01'0 0.0
2017-Oct-21 18:30N 40°44' W 074°01'2 4.1
2017-Oct-21 18:00N 40°42' W 074°02'1 2.2
2017-Oct-21 17:30N 40°42' W 074°00'1 3.0
2017-Oct-21 17:00N 40°43' W 074°01'1 1.4
2017-Oct-21 16:30N 40°44' W 074°01'0 0.0
2017-Oct-21 16:00N 40°44' W 074°01'0 0.0
2017-Oct-21 15:30N 40°44' W 074°01'0 0.0
2017-Oct-21 15:00N 40°44' W 074°01'0 0.0
2017-Oct-21 14:29N 40°44' W 074°01'0 0.0
2017-Oct-19 15:56N 40°44' W 074°01'0 0.0
2017-Oct-19 15:30N 40°44' W 074°01'0 0.0
2017-Oct-19 15:00N 40°44' W 074°01'0 0.0
2017-Oct-19 14:30N 40°44' W 074°01'0 0.0
2017-Oct-19 14:00N 40°44' W 074°01'0 0.0
2017-Oct-19 13:29N 40°44' W 074°01'0 0.0
2017-Oct-19 12:59N 40°44' W 074°01'0 0.0
2017-Oct-19 12:30N 40°44' W 074°01'0 0.0
2017-Oct-19 12:00N 40°44' W 074°01'0 0.0
2017-Oct-19 11:30N 40°44' W 074°01'0 0.0
2017-Oct-19 11:00N 40°44' W 074°01'0 0.0
2017-Oct-19 10:29N 40°44' W 074°01'0 0.0
2017-Oct-19 10:00N 40°44' W 074°01'0 0.0
2017-Oct-19 09:30N 40°44' W 074°01'0 0.0
2017-Oct-19 09:00N 40°44' W 074°01'0 0.0
2017-Oct-19 08:30N 40°44' W 074°01'0 0.0
2017-Oct-19 08:00N 40°44' W 074°01'0 0.0
2017-Oct-19 07:30N 40°44' W 074°01'0 0.0
2017-Oct-19 07:00N 40°44' W 074°01'0 0.0
2017-Oct-19 06:30N 40°44' W 074°01'0 0.0
2017-Oct-19 06:00N 40°44' W 074°01'0 0.0
2017-Oct-19 05:30N 40°44' W 074°01'0 0.0
2017-Oct-19 05:00N 40°44' W 074°01'0 0.0
2017-Oct-19 04:30N 40°44' W 074°01'0 0.0
2017-Oct-19 04:00N 40°44' W 074°01'0 0.0
2017-Oct-19 03:29N 40°44' W 074°01'0 0.0
2017-Oct-19 03:00N 40°44' W 074°01'0 0.0
2017-Oct-19 02:29N 40°44' W 074°01'0 0.0
2017-Oct-19 01:59N 40°44' W 074°01'0 0.0
2017-Oct-19 01:29N 40°44' W 074°01'0 0.0
2017-Oct-19 01:00N 40°44' W 074°01'0 0.0
2017-Oct-19 00:30N 40°44' W 074°01'0 0.0
2017-Oct-19 00:00N 40°44' W 074°01'0 0.0
2017-Oct-18 23:30N 40°44' W 074°01'0 0.0
2017-Oct-18 22:57N 40°44' W 074°01'0 0.0
2017-Oct-18 22:30N 40°44' W 074°01'0 0.0
2017-Oct-18 22:00N 40°44' W 074°01'0 0.0
2017-Oct-18 21:30N 40°44' W 074°01'0 0.0
2017-Oct-18 21:00N 40°44' W 074°01'0 0.0
2017-Oct-18 20:30N 40°44' W 074°01'0 0.0
2017-Oct-18 20:00N 40°44' W 074°01'0 0.0
2017-Oct-18 19:30N 40°44' W 074°01'0 0.0
2017-Oct-18 19:00N 40°44' W 074°01'0 0.0
2017-Oct-18 18:30N 40°44' W 074°01'0 0.0
2017-Oct-18 18:00N 40°44' W 074°01'0 0.0
2017-Oct-18 17:30N 40°44' W 074°01'0 0.0
2017-Oct-18 17:00N 40°44' W 074°01'0 0.0
2017-Oct-18 16:29N 40°44' W 074°01'0 0.0
2017-Oct-18 16:00N 40°44' W 074°01'0 0.0
2017-Oct-18 15:30N 40°44' W 074°01'0 0.0
2017-Oct-18 14:59N 40°44' W 074°01'0 0.0
2017-Oct-18 14:00N 40°44' W 074°01'0 0.0
2017-Oct-18 13:30N 40°44' W 074°01'0 0.0
2017-Oct-18 13:00N 40°44' W 074°01'0 0.0
2017-Oct-18 12:30N 40°44' W 074°01'0 0.0
2017-Oct-18 12:00N 40°44' W 074°01'0 0.0
2017-Oct-18 11:30N 40°44' W 074°01'0 0.0
2017-Oct-18 11:00N 40°44' W 074°01'0 0.0
2017-Oct-18 10:30N 40°44' W 074°01'0 0.0
2017-Oct-18 10:00N 40°44' W 074°01'0 0.0
2017-Oct-18 09:30N 40°44' W 074°01'0 0.0
2017-Oct-18 09:00N 40°44' W 074°01'0 0.0
2017-Oct-18 08:29N 40°44' W 074°01'0 0.0
2017-Oct-18 08:00N 40°44' W 074°01'0 0.0
2017-Oct-18 07:30N 40°44' W 074°01'0 0.0
2017-Oct-18 07:00N 40°44' W 074°01'0 0.0
2017-Oct-18 06:30N 40°44' W 074°01'0 0.0
2017-Oct-18 06:00N 40°44' W 074°01'0 0.0
2017-Oct-18 05:30N 40°44' W 074°01'0 0.0
2017-Oct-18 05:00N 40°44' W 074°01'0 0.0
2017-Oct-18 04:30N 40°44' W 074°01'0 0.0
2017-Oct-18 04:00N 40°44' W 074°01'0 0.0
2017-Oct-18 03:30N 40°44' W 074°01'0 0.0
2017-Oct-18 03:00N 40°44' W 074°01'0 0.0
2017-Oct-18 02:30N 40°44' W 074°01'0 0.0
2017-Oct-18 02:00N 40°44' W 074°01'0 0.0
2017-Oct-18 01:30N 40°44' W 074°01'0 0.0
2017-Oct-18 01:00N 40°44' W 074°01'0 0.0
2017-Oct-18 00:29N 40°44' W 074°01'0 0.0
2017-Oct-18 00:00N 40°44' W 074°01'0 0.0
2017-Oct-17 23:30N 40°44' W 074°01'0 0.0
2017-Oct-17 23:00N 40°44' W 074°01'0 0.0
2017-Oct-17 22:30N 40°44' W 074°01'0 0.0
2017-Oct-17 22:00N 40°44' W 074°01'0 0.0
2017-Oct-17 21:30N 40°44' W 074°01'0 0.0
2017-Oct-17 21:00N 40°44' W 074°01'0 0.0
2017-Oct-17 20:30N 40°44' W 074°01'0 0.0
2017-Oct-17 20:00N 40°44' W 074°01'0 0.0
2017-Oct-17 19:30N 40°44' W 074°01'0 0.0
2017-Oct-17 19:00N 40°44' W 074°01'0 0.0
2017-Oct-17 18:30N 40°44' W 074°01'0 0.0
2017-Oct-17 18:00N 40°44' W 074°01'0 0.0
2017-Oct-17 17:30N 40°44' W 074°01'0 0.0
2017-Oct-17 17:00N 40°44' W 074°01'0 0.0
2017-Oct-17 16:30N 40°44' W 074°01'0 0.0
2017-Oct-17 16:00N 40°44' W 074°01'0 0.0
2017-Oct-17 15:29N 40°44' W 074°01'0 0.0
2017-Oct-17 15:00N 40°44' W 074°01'0 0.0
2017-Oct-17 14:30N 40°44' W 074°01'0 0.0
2017-Oct-17 13:30N 40°44' W 074°01'0 0.0
2017-Oct-17 13:00N 40°44' W 074°01'0 0.0
2017-Oct-17 12:30N 40°44' W 074°01'0 0.0
2017-Oct-17 12:00N 40°44' W 074°01'0 0.0
2017-Oct-17 11:30N 40°44' W 074°01'0 0.0
2017-Oct-17 11:00N 40°44' W 074°01'0 0.0
2017-Oct-17 10:30N 40°44' W 074°01'0 0.0
2017-Oct-17 10:00N 40°44' W 074°01'0 0.0
2017-Oct-17 09:30N 40°44' W 074°01'0 0.0
2017-Oct-17 09:00N 40°44' W 074°01'0 0.0
2017-Oct-17 08:30N 40°44' W 074°01'0 0.0
2017-Oct-17 08:00N 40°44' W 074°01'0 0.0
2017-Oct-17 07:30N 40°44' W 074°01'0 0.0
2017-Oct-17 07:00N 40°44' W 074°01'0 0.0
2017-Oct-17 06:30N 40°44' W 074°01'0 0.0
2017-Oct-17 06:00N 40°44' W 074°01'0 0.0
2017-Oct-17 05:30N 40°44' W 074°01'0 0.0
2017-Oct-17 05:00N 40°44' W 074°01'0 0.0
2017-Oct-17 04:30N 40°44' W 074°01'0 0.0
2017-Oct-17 03:59N 40°44' W 074°01'0 0.0
2017-Oct-17 03:30N 40°44' W 074°01'0 0.0
2017-Oct-17 03:00N 40°44' W 074°01'0 0.0
2017-Oct-17 02:30N 40°44' W 074°01'0 0.0
2017-Oct-17 02:00N 40°44' W 074°01'0 0.0
2017-Oct-17 01:30N 40°44' W 074°01'0 0.0
2017-Oct-17 01:00N 40°44' W 074°01'0 0.0
2017-Oct-17 00:30N 40°44' W 074°01'0 0.0
2017-Oct-17 00:00N 40°44' W 074°01'0 0.0
2017-Oct-16 23:30N 40°44' W 074°01'0 0.0
2017-Oct-16 23:00N 40°44' W 074°01'0 0.0
2017-Oct-16 22:30N 40°44' W 074°01'0 0.0
2017-Oct-16 22:00N 40°44' W 074°01'0 0.0
2017-Oct-16 21:30N 40°44' W 074°01'0 0.0
2017-Oct-16 21:00N 40°44' W 074°01'0 0.0
2017-Oct-16 20:30N 40°44' W 074°01'0 0.0
2017-Oct-16 20:00N 40°44' W 074°01'0 0.0
2017-Oct-16 19:30N 40°44' W 074°01'0 0.0
2017-Oct-16 19:00N 40°44' W 074°01'0 0.0
2017-Oct-16 18:30N 40°44' W 074°01'0 0.0
2017-Oct-16 18:00N 40°44' W 074°01'0 0.0
2017-Oct-16 17:30N 40°44' W 074°01'0 0.0
2017-Oct-16 17:00N 40°44' W 074°01'0 0.0
2017-Oct-16 16:30N 40°44' W 074°01'0 0.0
2017-Oct-16 16:00N 40°44' W 074°01'0 0.0
2017-Oct-16 15:30N 40°44' W 074°01'0 0.0
2017-Oct-16 15:00N 40°44' W 074°01'0 0.0
2017-Oct-16 14:00N 40°44' W 074°01'0 0.0
2017-Oct-16 13:30N 40°44' W 074°01'0 0.0
2017-Oct-16 13:00N 40°44' W 074°01'0 0.0
2017-Oct-16 12:30N 40°44' W 074°01'0 0.0
2017-Oct-16 12:00N 40°44' W 074°01'0 0.0
2017-Oct-16 11:30N 40°44' W 074°01'0 0.0
2017-Oct-16 11:00N 40°44' W 074°01'0 0.0
2017-Oct-16 10:30N 40°44' W 074°01'0 0.0
2017-Oct-16 10:00N 40°44' W 074°01'0 0.0
2017-Oct-16 09:30N 40°44' W 074°01'0 0.0
2017-Oct-16 09:00N 40°44' W 074°01'0 0.0
2017-Oct-16 08:30N 40°44' W 074°01'0 0.0
2017-Oct-16 08:00N 40°44' W 074°01'0 0.0
2017-Oct-16 07:30N 40°44' W 074°01'0 0.0
2017-Oct-16 07:00N 40°44' W 074°01'0 0.0
2017-Oct-16 06:30N 40°44' W 074°01'0 0.0
2017-Oct-16 06:00N 40°44' W 074°01'0 0.0
2017-Oct-16 05:30N 40°44' W 074°01'0 0.0
2017-Oct-16 05:00N 40°44' W 074°01'0 0.0
2017-Oct-16 04:30N 40°44' W 074°01'0 0.0
2017-Oct-16 04:00N 40°44' W 074°01'0 0.0
2017-Oct-16 03:30N 40°44' W 074°01'0 0.0
2017-Oct-16 03:00N 40°44' W 074°01'0 0.0
2017-Oct-16 02:30N 40°44' W 074°01'0 0.0
2017-Oct-16 02:00N 40°44' W 074°01'0 0.0
2017-Oct-16 01:30N 40°44' W 074°01'0 0.0
2017-Oct-16 01:00N 40°44' W 074°01'0 0.0
2017-Oct-16 00:30N 40°44' W 074°01'0 0.0
2017-Oct-16 00:00N 40°44' W 074°01'0 0.0
2017-Oct-15 23:30N 40°44' W 074°01'0 0.0
2017-Oct-15 23:00N 40°44' W 074°01'0 0.0
2017-Oct-15 22:30N 40°44' W 074°01'0 0.0
2017-Oct-15 22:00N 40°44' W 074°01'0 0.0
2017-Oct-15 21:30N 40°44' W 074°01'0 0.0
2017-Oct-15 20:59N 40°44' W 074°01'0 0.0
2017-Oct-15 20:30N 40°44' W 074°01'0 0.0
2017-Oct-15 19:59N 40°44' W 074°01'0 0.0
2017-Oct-15 19:30N 40°44' W 074°01'0 0.0
2017-Oct-15 19:00N 40°44' W 074°01'0 0.0
2017-Oct-15 18:30N 40°44' W 074°01'1 1.8
2017-Oct-15 18:00N 40°43' W 074°01'2 3.0
2017-Oct-15 17:30N 40°42' W 074°02'1 2.0
2017-Oct-15 17:00N 40°43' W 074°01'1 2.8
2017-Oct-15 16:30N 40°44' W 074°01'0 0.0
2017-Oct-15 16:00N 40°44' W 074°01'0 0.0
2017-Oct-15 15:30N 40°44' W 074°01'0 0.0
2017-Oct-15 15:00N 40°44' W 074°01'0 0.0
2017-Oct-15 14:00N 40°44' W 074°01'0 0.0
2017-Oct-15 05:41N 40°44' W 074°01'0 1.4
2017-Oct-15 05:30N 40°44' W 074°01'3 5.4
2017-Oct-15 05:00N 40°41' W 074°03'2 5.0
2017-Oct-15 04:30N 40°42' W 073°60'0 0.4
2017-Oct-15 04:00N 40°42' W 073°59'1 2.9
2017-Oct-15 03:30N 40°43' W 074°01'1 2.7
2017-Oct-15 03:00N 40°44' W 074°01'0 0.0
2017-Oct-14 18:37N 40°44' W 074°01'0 0.0
2017-Oct-14 18:29N 40°44' W 074°01'3 5.7
2017-Oct-14 18:00N 40°41' W 074°02'3 5.2
2017-Oct-14 17:30N 40°42' W 073°59'2 3.4
2017-Oct-14 17:00N 40°42' W 074°01'1 3.0
2017-Oct-14 16:30N 40°44' W 074°01'0 0.0
2017-Oct-14 16:00N 40°44' W 074°01'0 0.0
2017-Oct-14 03:42N 40°44' W 074°01'0 1.0
2017-Oct-14 03:30N 40°44' W 074°01'1 2.2
2017-Oct-14 03:00N 40°43' W 074°01'1 2.6
2017-Oct-14 02:29N 40°41' W 074°02'3 7.0
2017-Oct-14 02:00N 40°43' W 073°58'1 2.6
2017-Oct-14 01:30N 40°42' W 073°60'1 2.7
2017-Oct-14 01:00N 40°43' W 074°01'3 6.0
2017-Oct-14 00:30N 40°46' W 074°01'1 1.0
2017-Oct-14 00:00N 40°45' W 074°01'1 2.6
2017-Oct-13 23:30N 40°44' W 074°01'0 0.0
2017-Oct-13 23:00N 40°44' W 074°01'  

Dump ship's entire track history